sensor_id;sensor_type;location;lat;lon;timestamp;P1;durP1;ratioP1;P2;durP2;ratioP2
65039;SDS011;51606;45.000;38.612;2023-08-06T02:46:00;11.38;;;3.25;;
65039;SDS011;51606;45.000;38.612;2023-08-06T02:48:28;6.30;;;2.25;;
65039;SDS011;51606;45.000;38.612;2023-08-06T02:50:58;8.95;;;2.67;;
65039;SDS011;51606;45.000;38.612;2023-08-06T02:53:26;15.45;;;2.42;;
65039;SDS011;51606;45.000;38.612;2023-08-06T02:55:53;12.30;;;2.28;;
65039;SDS011;51606;45.000;38.612;2023-08-06T02:58:26;5.80;;;3.28;;
65039;SDS011;51606;45.000;38.612;2023-08-06T03:01:19;4.20;;;2.25;;
65039;SDS011;51606;45.000;38.612;2023-08-06T03:03:53;12.23;;;2.38;;
65039;SDS011;51606;45.000;38.612;2023-08-06T03:06:26;7.15;;;2.60;;
65039;SDS011;51606;45.000;38.612;2023-08-06T03:08:56;6.90;;;2.90;;
65039;SDS011;51606;45.000;38.612;2023-08-06T03:11:22;10.48;;;2.40;;
65039;SDS011;51606;45.000;38.612;2023-08-06T03:13:54;6.60;;;2.10;;
65039;SDS011;51606;45.000;38.612;2023-08-06T03:16:20;5.97;;;2.30;;
65039;SDS011;51606;45.000;38.612;2023-08-06T03:18:47;7.25;;;2.20;;
65039;SDS011;51606;45.000;38.612;2023-08-06T03:21:14;7.80;;;2.55;;
65039;SDS011;51606;45.000;38.612;2023-08-06T03:23:41;10.80;;;2.47;;
65039;SDS011;51606;45.000;38.612;2023-08-06T03:26:08;11.30;;;2.45;;
65039;SDS011;51606;45.000;38.612;2023-08-06T03:28:36;2.28;;;1.88;;
65039;SDS011;51606;45.000;38.612;2023-08-06T03:31:02;2.42;;;1.98;;
65039;SDS011;51606;45.000;38.612;2023-08-06T03:33:42;2.28;;;1.80;;
65039;SDS011;51606;45.000;38.612;2023-08-06T03:36:13;4.25;;;1.90;;
65039;SDS011;51606;45.000;38.612;2023-08-06T03:38:41;3.40;;;2.10;;
65039;SDS011;51606;45.000;38.612;2023-08-06T03:41:09;4.95;;;2.10;;
65039;SDS011;51606;45.000;38.612;2023-08-06T03:43:36;7.30;;;2.45;;
65039;SDS011;51606;45.000;38.612;2023-08-06T03:46:07;2.90;;;1.77;;
65039;SDS011;51606;45.000;38.612;2023-08-06T03:48:33;4.55;;;1.98;;
65039;SDS011;51606;45.000;38.612;2023-08-06T03:51:02;9.40;;;2.25;;
65039;SDS011;51606;45.000;38.612;2023-08-06T03:53:29;12.45;;;2.15;;
65039;SDS011;51606;45.000;38.612;2023-08-06T03:55:55;4.43;;;2.60;;
65039;SDS011;51606;45.000;38.612;2023-08-06T03:58:25;3.83;;;2.42;;
65039;SDS011;51606;45.000;38.612;2023-08-06T04:01:01;3.90;;;2.55;;
65039;SDS011;51606;45.000;38.612;2023-08-06T04:03:38;3.83;;;1.88;;
65039;SDS011;51606;45.000;38.612;2023-08-06T04:06:04;2.95;;;2.20;;
65039;SDS011;51606;45.000;38.612;2023-08-06T04:08:30;4.30;;;2.38;;
65039;SDS011;51606;45.000;38.612;2023-08-06T04:10:57;3.28;;;2.15;;
65039;SDS011;51606;45.000;38.612;2023-08-06T04:13:24;3.30;;;2.15;;
65039;SDS011;51606;45.000;38.612;2023-08-06T04:15:50;2.78;;;1.80;;
65039;SDS011;51606;45.000;38.612;2023-08-06T04:18:16;9.43;;;2.33;;
65039;SDS011;51606;45.000;38.612;2023-08-06T04:20:46;3.92;;;2.47;;
65039;SDS011;51606;45.000;38.612;2023-08-06T04:23:15;5.50;;;2.22;;
65039;SDS011;51606;45.000;38.612;2023-08-06T04:25:42;3.83;;;2.30;;
65039;SDS011;51606;45.000;38.612;2023-08-06T04:28:08;2.75;;;2.40;;
65039;SDS011;51606;45.000;38.612;2023-08-06T04:30:35;10.65;;;2.60;;
65039;SDS011;51606;45.000;38.612;2023-08-06T04:33:03;3.22;;;2.33;;
65039;SDS011;51606;45.000;38.612;2023-08-06T04:35:29;3.28;;;2.40;;
65039;SDS011;51606;45.000;38.612;2023-08-06T04:37:56;3.95;;;2.25;;
65039;SDS011;51606;45.000;38.612;2023-08-06T04:40:22;4.35;;;2.53;;
65039;SDS011;51606;45.000;38.612;2023-08-06T04:42:49;4.13;;;2.33;;
65039;SDS011;51606;45.000;38.612;2023-08-06T04:45:16;3.17;;;2.50;;
65039;SDS011;51606;45.000;38.612;2023-08-06T04:47:42;4.80;;;2.00;;
65039;SDS011;51606;45.000;38.612;2023-08-06T04:50:09;2.70;;;1.98;;
65039;SDS011;51606;45.000;38.612;2023-08-06T04:52:35;4.65;;;2.40;;
65039;SDS011;51606;45.000;38.612;2023-08-06T04:55:03;3.05;;;2.20;;
65039;SDS011;51606;45.000;38.612;2023-08-06T04:57:31;3.75;;;2.25;;
65039;SDS011;51606;45.000;38.612;2023-08-06T04:59:58;12.77;;;2.00;;
65039;SDS011;51606;45.000;38.612;2023-08-06T05:02:24;8.80;;;2.03;;
65039;SDS011;51606;45.000;38.612;2023-08-06T05:04:51;4.05;;;2.35;;
65039;SDS011;51606;45.000;38.612;2023-08-06T05:07:17;1.80;;;1.70;;
65039;SDS011;51606;45.000;38.612;2023-08-06T05:09:44;7.72;;;1.70;;
65039;SDS011;51606;45.000;38.612;2023-08-06T05:12:10;8.80;;;2.45;;
65039;SDS011;51606;45.000;38.612;2023-08-06T05:14:37;4.07;;;2.05;;
65039;SDS011;51606;45.000;38.612;2023-08-06T05:17:03;7.22;;;2.28;;
65039;SDS011;51606;45.000;38.612;2023-08-06T05:19:30;9.23;;;2.03;;
65039;SDS011;51606;45.000;38.612;2023-08-06T05:21:56;3.63;;;1.73;;
65039;SDS011;51606;45.000;38.612;2023-08-06T05:24:22;3.72;;;2.17;;
65039;SDS011;51606;45.000;38.612;2023-08-06T05:26:49;2.80;;;1.80;;
65039;SDS011;51606;45.000;38.612;2023-08-06T05:29:16;4.57;;;2.00;;
65039;SDS011;51606;45.000;38.612;2023-08-06T05:31:42;8.05;;;2.17;;
65039;SDS011;51606;45.000;38.612;2023-08-06T05:34:09;3.47;;;1.77;;
65039;SDS011;51606;45.000;38.612;2023-08-06T05:36:35;3.88;;;2.25;;
65039;SDS011;51606;45.000;38.612;2023-08-06T05:39:01;3.70;;;2.15;;
65039;SDS011;51606;45.000;38.612;2023-08-06T05:41:28;2.13;;;1.52;;
65039;SDS011;51606;45.000;38.612;2023-08-06T05:43:54;2.10;;;1.70;;
65039;SDS011;51606;45.000;38.612;2023-08-06T05:46:21;4.00;;;1.92;;
65039;SDS011;51606;45.000;38.612;2023-08-06T05:48:47;2.95;;;1.88;;
65039;SDS011;51606;45.000;38.612;2023-08-06T05:51:14;5.20;;;1.65;;
65039;SDS011;51606;45.000;38.612;2023-08-06T05:53:41;3.60;;;1.90;;
65039;SDS011;51606;45.000;38.612;2023-08-06T05:56:08;5.50;;;2.45;;
65039;SDS011;51606;45.000;38.612;2023-08-06T05:58:34;6.00;;;1.90;;
65039;SDS011;51606;45.000;38.612;2023-08-06T06:01:00;3.25;;;1.85;;
65039;SDS011;51606;45.000;38.612;2023-08-06T06:03:27;6.13;;;2.13;;
65039;SDS011;51606;45.000;38.612;2023-08-06T06:05:53;3.55;;;1.70;;
65039;SDS011;51606;45.000;38.612;2023-08-06T06:08:20;4.82;;;2.22;;
65039;SDS011;51606;45.000;38.612;2023-08-06T06:10:46;5.80;;;1.80;;
65039;SDS011;51606;45.000;38.612;2023-08-06T06:13:12;4.35;;;1.95;;
65039;SDS011;51606;45.000;38.612;2023-08-06T06:15:39;4.05;;;1.95;;
65039;SDS011;51606;45.000;38.612;2023-08-06T06:18:05;3.88;;;1.95;;
65039;SDS011;51606;45.000;38.612;2023-08-06T06:20:32;2.53;;;2.03;;
65039;SDS011;51606;45.000;38.612;2023-08-06T06:22:59;6.68;;;2.50;;
65039;SDS011;51606;45.000;38.612;2023-08-06T06:25:26;3.40;;;1.90;;
65039;SDS011;51606;45.000;38.612;2023-08-06T06:27:52;3.38;;;2.03;;
65039;SDS011;51606;45.000;38.612;2023-08-06T06:30:18;4.30;;;1.77;;
65039;SDS011;51606;45.000;38.612;2023-08-06T06:32:45;8.25;;;2.38;;
65039;SDS011;51606;45.000;38.612;2023-08-06T06:35:12;6.18;;;1.90;;
65039;SDS011;51606;45.000;38.612;2023-08-06T06:37:38;6.43;;;1.90;;
65039;SDS011;51606;45.000;38.612;2023-08-06T06:40:04;2.55;;;1.95;;
65039;SDS011;51606;45.000;38.612;2023-08-06T06:42:31;5.75;;;2.38;;
65039;SDS011;51606;45.000;38.612;2023-08-06T06:45:00;37.90;;;3.63;;
65039;SDS011;51606;45.000;38.612;2023-08-06T06:47:27;13.73;;;2.30;;
65039;SDS011;51606;45.000;38.612;2023-08-06T06:49:53;7.13;;;2.17;;
65039;SDS011;51606;45.000;38.612;2023-08-06T06:52:20;3.72;;;1.67;;
65039;SDS011;51606;45.000;38.612;2023-08-06T06:54:46;4.68;;;2.10;;
65039;SDS011;51606;45.000;38.612;2023-08-06T06:57:13;11.80;;;1.88;;
65039;SDS011;51606;45.000;38.612;2023-08-06T06:59:39;3.33;;;1.75;;
65039;SDS011;51606;45.000;38.612;2023-08-06T07:02:06;2.10;;;1.80;;
65039;SDS011;51606;45.000;38.612;2023-08-06T07:04:32;6.43;;;1.67;;
65039;SDS011;51606;45.000;38.612;2023-08-06T07:06:59;3.55;;;1.77;;
65039;SDS011;51606;45.000;38.612;2023-08-06T07:09:25;3.42;;;1.67;;
65039;SDS011;51606;45.000;38.612;2023-08-06T07:11:52;5.32;;;2.05;;
65039;SDS011;51606;45.000;38.612;2023-08-06T07:14:18;4.00;;;1.77;;
65039;SDS011;51606;45.000;38.612;2023-08-06T07:16:44;6.53;;;2.00;;
65039;SDS011;51606;45.000;38.612;2023-08-06T07:19:14;11.05;;;2.00;;
65039;SDS011;51606;45.000;38.612;2023-08-06T07:21:40;3.80;;;1.83;;
65039;SDS011;51606;45.000;38.612;2023-08-06T07:24:07;9.52;;;1.95;;
65039;SDS011;51606;45.000;38.612;2023-08-06T07:26:33;3.75;;;2.00;;
65039;SDS011;51606;45.000;38.612;2023-08-06T07:29:00;7.85;;;1.85;;
65039;SDS011;51606;45.000;38.612;2023-08-06T07:31:26;2.45;;;1.70;;
65039;SDS011;51606;45.000;38.612;2023-08-06T07:33:53;5.47;;;1.73;;
65039;SDS011;51606;45.000;38.612;2023-08-06T07:36:19;1.67;;;1.52;;
65039;SDS011;51606;45.000;38.612;2023-08-06T07:38:46;9.10;;;1.80;;
65039;SDS011;51606;45.000;38.612;2023-08-06T07:41:14;6.32;;;1.90;;
65039;SDS011;51606;45.000;38.612;2023-08-06T07:43:41;4.07;;;2.03;;
65039;SDS011;51606;45.000;38.612;2023-08-06T07:46:08;3.50;;;1.88;;
65039;SDS011;51606;45.000;38.612;2023-08-06T07:48:34;4.43;;;1.42;;
65039;SDS011;51606;45.000;38.612;2023-08-06T07:51:00;2.50;;;1.60;;
65039;SDS011;51606;45.000;38.612;2023-08-06T07:53:27;3.80;;;2.00;;
65039;SDS011;51606;45.000;38.612;2023-08-06T07:55:54;10.50;;;1.77;;
65039;SDS011;51606;45.000;38.612;2023-08-06T07:58:23;4.38;;;1.90;;
65039;SDS011;51606;45.000;38.612;2023-08-06T08:00:50;3.97;;;1.83;;
65039;SDS011;51606;45.000;38.612;2023-08-06T08:03:17;4.35;;;1.65;;
65039;SDS011;51606;45.000;38.612;2023-08-06T08:05:45;2.42;;;1.80;;
65039;SDS011;51606;45.000;38.612;2023-08-06T08:08:12;4.95;;;1.92;;
65039;SDS011;51606;45.000;38.612;2023-08-06T08:10:38;3.60;;;1.50;;
65039;SDS011;51606;45.000;38.612;2023-08-06T08:13:05;5.55;;;1.73;;
65039;SDS011;51606;45.000;38.612;2023-08-06T08:15:32;8.68;;;2.10;;
65039;SDS011;51606;45.000;38.612;2023-08-06T08:17:58;7.43;;;1.77;;
65039;SDS011;51606;45.000;38.612;2023-08-06T08:20:25;6.32;;;1.88;;
65039;SDS011;51606;45.000;38.612;2023-08-06T08:22:57;6.30;;;1.92;;
65039;SDS011;51606;45.000;38.612;2023-08-06T08:25:24;2.00;;;1.48;;
65039;SDS011;51606;45.000;38.612;2023-08-06T08:27:53;2.50;;;1.58;;
65039;SDS011;51606;45.000;38.612;2023-08-06T08:30:22;3.42;;;1.73;;
65039;SDS011;51606;45.000;38.612;2023-08-06T08:32:50;3.25;;;1.55;;
65039;SDS011;51606;45.000;38.612;2023-08-06T08:35:17;20.00;;;1.77;;
65039;SDS011;51606;45.000;38.612;2023-08-06T08:37:43;2.45;;;1.52;;
65039;SDS011;51606;45.000;38.612;2023-08-06T08:40:09;3.60;;;1.65;;
65039;SDS011;51606;45.000;38.612;2023-08-06T08:42:37;5.22;;;1.70;;
65039;SDS011;51606;45.000;38.612;2023-08-06T08:45:12;3.20;;;1.67;;
65039;SDS011;51606;45.000;38.612;2023-08-06T08:47:43;5.85;;;1.55;;
65039;SDS011;51606;45.000;38.612;2023-08-06T08:50:10;6.80;;;1.55;;
65039;SDS011;51606;45.000;38.612;2023-08-06T08:52:38;10.07;;;1.70;;
65039;SDS011;51606;45.000;38.612;2023-08-06T08:55:06;7.57;;;1.85;;
65039;SDS011;51606;45.000;38.612;2023-08-06T08:57:33;8.18;;;1.90;;
65039;SDS011;51606;45.000;38.612;2023-08-06T09:00:00;2.83;;;1.90;;
65039;SDS011;51606;45.000;38.612;2023-08-06T09:02:28;3.25;;;2.08;;
65039;SDS011;51606;45.000;38.612;2023-08-06T09:04:56;2.83;;;1.63;;
65039;SDS011;51606;45.000;38.612;2023-08-06T09:07:49;4.38;;;1.73;;
65039;SDS011;51606;45.000;38.612;2023-08-06T09:10:17;5.50;;;2.08;;
65039;SDS011;51606;45.000;38.612;2023-08-06T09:12:50;9.23;;;2.13;;
65039;SDS011;51606;45.000;38.612;2023-08-06T09:15:19;2.72;;;1.77;;
65039;SDS011;51606;45.000;38.612;2023-08-06T09:17:46;3.17;;;2.35;;
65039;SDS011;51606;45.000;38.612;2023-08-06T09:20:13;8.15;;;1.92;;
65039;SDS011;51606;45.000;38.612;2023-08-06T09:22:41;9.18;;;2.00;;
65039;SDS011;51606;45.000;38.612;2023-08-06T09:25:07;3.25;;;1.60;;
65039;SDS011;51606;45.000;38.612;2023-08-06T09:27:39;11.98;;;1.40;;
65039;SDS011;51606;45.000;38.612;2023-08-06T09:30:08;2.42;;;1.40;;
65039;SDS011;51606;45.000;38.612;2023-08-06T09:32:47;5.63;;;1.40;;
65039;SDS011;51606;45.000;38.612;2023-08-06T09:35:17;6.28;;;1.50;;
65039;SDS011;51606;45.000;38.612;2023-08-06T09:37:44;2.92;;;1.30;;
65039;SDS011;51606;45.000;38.612;2023-08-06T09:40:27;4.13;;;1.52;;
65039;SDS011;51606;45.000;38.612;2023-08-06T09:42:55;3.95;;;1.40;;
65039;SDS011;51606;45.000;38.612;2023-08-06T09:45:22;5.30;;;1.15;;
65039;SDS011;51606;45.000;38.612;2023-08-06T09:47:57;3.30;;;1.35;;
65039;SDS011;51606;45.000;38.612;2023-08-06T09:50:25;2.03;;;1.30;;
65039;SDS011;51606;45.000;38.612;2023-08-06T09:52:56;4.00;;;1.40;;
65039;SDS011;51606;45.000;38.612;2023-08-06T09:55:24;3.20;;;1.40;;
65039;SDS011;51606;45.000;38.612;2023-08-06T09:57:52;3.67;;;1.48;;
65039;SDS011;51606;45.000;38.612;2023-08-06T10:00:19;2.65;;;1.38;;
65039;SDS011;51606;45.000;38.612;2023-08-06T10:02:46;2.35;;;1.20;;
65039;SDS011;51606;45.000;38.612;2023-08-06T10:05:14;1.52;;;1.30;;
65039;SDS011;51606;45.000;38.612;2023-08-06T10:07:42;2.10;;;1.45;;
65039;SDS011;51606;45.000;38.612;2023-08-06T10:10:10;5.60;;;1.65;;
65039;SDS011;51606;45.000;38.612;2023-08-06T10:12:41;1.67;;;1.10;;
65039;SDS011;51606;45.000;38.612;2023-08-06T10:15:13;1.80;;;1.15;;
65039;SDS011;51606;45.000;38.612;2023-08-06T10:17:42;2.28;;;1.20;;
65039;SDS011;51606;45.000;38.612;2023-08-06T10:20:10;2.92;;;1.50;;
65039;SDS011;51606;45.000;38.612;2023-08-06T10:22:41;6.85;;;1.40;;
65039;SDS011;51606;45.000;38.612;2023-08-06T10:25:16;10.27;;;1.50;;
65039;SDS011;51606;45.000;38.612;2023-08-06T10:30:21;4.93;;;1.45;;
65039;SDS011;51606;45.000;38.612;2023-08-06T10:32:52;3.30;;;1.40;;
65039;SDS011;51606;45.000;38.612;2023-08-06T10:38:18;13.65;;;1.73;;
65039;SDS011;51606;45.000;38.612;2023-08-06T10:43:27;5.32;;;1.27;;
65039;SDS011;51606;45.000;38.612;2023-08-06T10:45:55;3.00;;;1.35;;
65039;SDS011;51606;45.000;38.612;2023-08-06T10:48:29;4.50;;;1.38;;
65039;SDS011;51606;45.000;38.612;2023-08-06T10:51:11;6.78;;;1.67;;
65039;SDS011;51606;45.000;38.612;2023-08-06T10:53:48;4.40;;;1.63;;
65039;SDS011;51606;45.000;38.612;2023-08-06T10:56:18;6.40;;;1.60;;
65039;SDS011;51606;45.000;38.612;2023-08-06T10:58:50;6.45;;;1.17;;
65039;SDS011;51606;45.000;38.612;2023-08-06T11:01:22;2.10;;;1.13;;
65039;SDS011;51606;45.000;38.612;2023-08-06T11:03:49;2.67;;;1.10;;
65039;SDS011;51606;45.000;38.612;2023-08-06T11:06:19;7.60;;;1.55;;
65039;SDS011;51606;45.000;38.612;2023-08-06T11:08:52;6.95;;;1.30;;
65039;SDS011;51606;45.000;38.612;2023-08-06T11:13:49;6.22;;;1.55;;
65039;SDS011;51606;45.000;38.612;2023-08-06T11:16:17;2.17;;;1.20;;
65039;SDS011;51606;45.000;38.612;2023-08-06T11:18:45;2.53;;;1.48;;
65039;SDS011;51606;45.000;38.612;2023-08-06T11:21:13;4.47;;;1.40;;
65039;SDS011;51606;45.000;38.612;2023-08-06T11:23:40;7.68;;;1.40;;
65039;SDS011;51606;45.000;38.612;2023-08-06T11:26:07;6.13;;;1.35;;
65039;SDS011;51606;45.000;38.612;2023-08-06T11:28:34;6.57;;;1.35;;
65039;SDS011;51606;45.000;38.612;2023-08-06T11:31:00;2.33;;;1.15;;
65039;SDS011;51606;45.000;38.612;2023-08-06T11:33:28;3.00;;;1.05;;
65039;SDS011;51606;45.000;38.612;2023-08-06T11:35:57;5.40;;;1.00;;
65039;SDS011;51606;45.000;38.612;2023-08-06T11:38:25;5.45;;;1.70;;
65039;SDS011;51606;45.000;38.612;2023-08-06T11:40:55;8.82;;;1.45;;
65039;SDS011;51606;45.000;38.612;2023-08-06T11:43:22;3.33;;;1.35;;
65039;SDS011;51606;45.000;38.612;2023-08-06T11:45:49;6.70;;;1.80;;
65039;SDS011;51606;45.000;38.612;2023-08-06T11:48:18;6.13;;;1.70;;
65039;SDS011;51606;45.000;38.612;2023-08-06T11:50:44;8.77;;;1.58;;
65039;SDS011;51606;45.000;38.612;2023-08-06T12:07:31;4.20;;;1.77;;
65039;SDS011;51606;45.000;38.612;2023-08-06T12:09:58;11.90;;;1.55;;
65039;SDS011;51606;45.000;38.612;2023-08-06T12:12:25;3.70;;;1.13;;
65039;SDS011;51606;45.000;38.612;2023-08-06T12:14:51;5.97;;;1.50;;
65039;SDS011;51606;45.000;38.612;2023-08-06T12:17:18;5.35;;;1.70;;
65039;SDS011;51606;45.000;38.612;2023-08-06T12:19:44;2.30;;;1.30;;
65039;SDS011;51606;45.000;38.612;2023-08-06T12:22:13;5.55;;;1.50;;
65039;SDS011;51606;45.000;38.612;2023-08-06T12:24:41;5.72;;;1.30;;
65039;SDS011;51606;45.000;38.612;2023-08-06T12:27:10;4.05;;;1.30;;
65039;SDS011;51606;45.000;38.612;2023-08-06T12:29:43;2.35;;;1.60;;
65039;SDS011;51606;45.000;38.612;2023-08-06T12:32:11;1.98;;;1.20;;
65039;SDS011;51606;45.000;38.612;2023-08-06T12:34:38;3.03;;;1.48;;
65039;SDS011;51606;45.000;38.612;2023-08-06T12:37:05;9.70;;;1.88;;
